sensor_id;sensor_type;location;lat;lon;timestamp;temperature;humidity
5554;DHT22;2800;49.528;8.666;2023-03-02T00:04:24;3.10;99.90
5554;DHT22;2800;49.528;8.666;2023-03-02T00:06:53;3.10;99.90
5554;DHT22;2800;49.528;8.666;2023-03-02T00:09:20;3.00;99.90
5554;DHT22;2800;49.528;8.666;2023-03-02T00:11:46;2.90;99.90
5554;DHT22;2800;49.528;8.666;2023-03-02T00:14:11;3.00;99.90
5554;DHT22;2800;49.528;8.666;2023-03-02T00:16:37;3.00;99.90
5554;DHT22;2800;49.528;8.666;2023-03-02T00:19:04;2.90;99.90
5554;DHT22;2800;49.528;8.666;2023-03-02T00:21:30;3.00;99.90
5554;DHT22;2800;49.528;8.666;2023-03-02T00:23:56;3.00;99.90
5554;DHT22;2800;49.528;8.666;2023-03-02T00:26:22;3.00;99.90
5554;DHT22;2800;49.528;8.666;2023-03-02T00:28:48;3.00;99.90
5554;DHT22;2800;49.528;8.666;2023-03-02T00:31:13;3.00;99.90
5554;DHT22;2800;49.528;8.666;2023-03-02T00:33:39;3.00;99.90
5554;DHT22;2800;49.528;8.666;2023-03-02T00:36:05;3.00;99.90
5554;DHT22;2800;49.528;8.666;2023-03-02T00:38:30;3.00;99.90
5554;DHT22;2800;49.528;8.666;2023-03-02T00:40:56;3.00;99.90
5554;DHT22;2800;49.528;8.666;2023-03-02T00:43:23;3.00;99.90
5554;DHT22;2800;49.528;8.666;2023-03-02T00:45:53;3.00;99.90
5554;DHT22;2800;49.528;8.666;2023-03-02T00:48:18;3.00;99.90
5554;DHT22;2800;49.528;8.666;2023-03-02T00:50:44;3.10;99.90
5554;DHT22;2800;49.528;8.666;2023-03-02T00:53:10;3.00;99.90
5554;DHT22;2800;49.528;8.666;2023-03-02T00:55:36;3.00;99.90
5554;DHT22;2800;49.528;8.666;2023-03-02T00:58:03;3.00;99.90
5554;DHT22;2800;49.528;8.666;2023-03-02T01:00:29;3.00;99.90
5554;DHT22;2800;49.528;8.666;2023-03-02T01:02:55;2.90;99.90
5554;DHT22;2800;49.528;8.666;2023-03-02T01:05:21;2.90;99.90
5554;DHT22;2800;49.528;8.666;2023-03-02T01:07:46;2.90;99.90
5554;DHT22;2800;49.528;8.666;2023-03-02T01:10:13;3.00;99.90
5554;DHT22;2800;49.528;8.666;2023-03-02T01:12:39;2.90;99.90
5554;DHT22;2800;49.528;8.666;2023-03-02T01:15:06;2.90;99.90
5554;DHT22;2800;49.528;8.666;2023-03-02T01:17:32;2.90;99.90
5554;DHT22;2800;49.528;8.666;2023-03-02T01:19:58;2.80;99.90
5554;DHT22;2800;49.528;8.666;2023-03-02T01:22:23;2.80;99.90
5554;DHT22;2800;49.528;8.666;2023-03-02T01:24:49;2.80;99.90
5554;DHT22;2800;49.528;8.666;2023-03-02T01:27:14;2.70;99.90
5554;DHT22;2800;49.528;8.666;2023-03-02T01:29:40;2.70;99.90
5554;DHT22;2800;49.528;8.666;2023-03-02T01:32:07;2.70;99.90
5554;DHT22;2800;49.528;8.666;2023-03-02T01:34:33;2.60;99.90
5554;DHT22;2800;49.528;8.666;2023-03-02T01:36:58;2.60;99.90
5554;DHT22;2800;49.528;8.666;2023-03-02T01:39:24;2.50;99.90
5554;DHT22;2800;49.528;8.666;2023-03-02T01:45:38;2.50;99.90
5554;DHT22;2800;49.528;8.666;2023-03-02T01:48:09;2.50;99.90
5554;DHT22;2800;49.528;8.666;2023-03-02T01:50:35;2.50;99.90
5554;DHT22;2800;49.528;8.666;2023-03-02T01:53:00;2.60;99.90
5554;DHT22;2800;49.528;8.666;2023-03-02T01:55:28;2.40;99.90
5554;DHT22;2800;49.528;8.666;2023-03-02T01:57:55;2.40;99.90
5554;DHT22;2800;49.528;8.666;2023-03-02T02:00:28;2.30;99.90
5554;DHT22;2800;49.528;8.666;2023-03-02T02:02:58;2.40;99.90
5554;DHT22;2800;49.528;8.666;2023-03-02T02:05:35;2.30;99.90
5554;DHT22;2800;49.528;8.666;2023-03-02T02:08:01;2.20;99.90
5554;DHT22;2800;49.528;8.666;2023-03-02T02:10:27;2.20;99.90
5554;DHT22;2800;49.528;8.666;2023-03-02T02:12:53;2.30;99.90
5554;DHT22;2800;49.528;8.666;2023-03-02T02:15:18;2.30;99.90
5554;DHT22;2800;49.528;8.666;2023-03-02T02:17:44;1.20;99.90
5554;DHT22;2800;49.528;8.666;2023-03-02T02:20:27;2.20;99.90
5554;DHT22;2800;49.528;8.666;2023-03-02T02:30:50;2.10;99.90
5554;DHT22;2800;49.528;8.666;2023-03-02T02:33:20;2.10;99.90
5554;DHT22;2800;49.528;8.666;2023-03-02T02:35:48;2.20;99.90
5554;DHT22;2800;49.528;8.666;2023-03-02T02:38:18;2.20;99.90
5554;DHT22;2800;49.528;8.666;2023-03-02T02:40:54;2.20;99.90
5554;DHT22;2800;49.528;8.666;2023-03-02T02:43:21;2.20;99.90
5554;DHT22;2800;49.528;8.666;2023-03-02T02:45:49;2.20;99.90
5554;DHT22;2800;49.528;8.666;2023-03-02T02:48:18;2.20;99.90
5554;DHT22;2800;49.528;8.666;2023-03-02T02:50:45;2.20;99.90
5554;DHT22;2800;49.528;8.666;2023-03-02T02:53:17;2.20;99.90
5554;DHT22;2800;49.528;8.666;2023-03-02T02:55:45;2.10;99.90
5554;DHT22;2800;49.528;8.666;2023-03-02T02:58:31;2.20;99.90
5554;DHT22;2800;49.528;8.666;2023-03-02T03:00:59;2.10;99.90
5554;DHT22;2800;49.528;8.666;2023-03-02T03:03:31;2.10;99.90
5554;DHT22;2800;49.528;8.666;2023-03-02T03:05:59;2.10;99.90
5554;DHT22;2800;49.528;8.666;2023-03-02T03:11:14;2.10;99.90
5554;DHT22;2800;49.528;8.666;2023-03-02T03:13:44;2.20;99.90
5554;DHT22;2800;49.528;8.666;2023-03-02T03:16:15;2.20;99.90
5554;DHT22;2800;49.528;8.666;2023-03-02T03:18:43;2.20;99.90
5554;DHT22;2800;49.528;8.666;2023-03-02T03:21:09;2.20;99.90
5554;DHT22;2800;49.528;8.666;2023-03-02T03:23:35;2.20;99.90
5554;DHT22;2800;49.528;8.666;2023-03-02T03:26:03;2.10;99.90
5554;DHT22;2800;49.528;8.666;2023-03-02T03:28:29;2.10;99.90
5554;DHT22;2800;49.528;8.666;2023-03-02T03:30:55;2.10;99.90
5554;DHT22;2800;49.528;8.666;2023-03-02T03:33:20;2.10;99.90
5554;DHT22;2800;49.528;8.666;2023-03-02T03:35:46;2.10;99.90
5554;DHT22;2800;49.528;8.666;2023-03-02T03:38:11;2.10;99.90
5554;DHT22;2800;49.528;8.666;2023-03-02T03:40:37;2.10;99.90
5554;DHT22;2800;49.528;8.666;2023-03-02T03:43:02;2.10;99.90
5554;DHT22;2800;49.528;8.666;2023-03-02T03:45:28;2.10;99.90
5554;DHT22;2800;49.528;8.666;2023-03-02T03:47:54;2.10;99.90
5554;DHT22;2800;49.528;8.666;2023-03-02T03:50:20;2.10;99.90
5554;DHT22;2800;49.528;8.666;2023-03-02T03:52:45;2.10;99.90
5554;DHT22;2800;49.528;8.666;2023-03-02T03:55:11;2.00;99.90
5554;DHT22;2800;49.528;8.666;2023-03-02T03:57:37;2.00;99.90
5554;DHT22;2800;49.528;8.666;2023-03-02T04:00:08;2.00;99.90
5554;DHT22;2800;49.528;8.666;2023-03-02T04:02:35;1.90;99.90
5554;DHT22;2800;49.528;8.666;2023-03-02T04:05:02;1.90;99.90
5554;DHT22;2800;49.528;8.666;2023-03-02T04:07:35;1.90;99.90
5554;DHT22;2800;49.528;8.666;2023-03-02T04:10:01;1.80;99.90
5554;DHT22;2800;49.528;8.666;2023-03-02T04:12:31;1.80;99.90
5554;DHT22;2800;49.528;8.666;2023-03-02T04:14:58;1.80;99.90
5554;DHT22;2800;49.528;8.666;2023-03-02T04:17:23;1.70;99.90
5554;DHT22;2800;49.528;8.666;2023-03-02T04:19:49;1.70;99.90
5554;DHT22;2800;49.528;8.666;2023-03-02T04:22:15;1.70;99.90
5554;DHT22;2800;49.528;8.666;2023-03-02T04:24:41;1.70;99.90
5554;DHT22;2800;49.528;8.666;2023-03-02T04:27:07;1.70;99.90
5554;DHT22;2800;49.528;8.666;2023-03-02T04:29:34;1.70;99.90
5554;DHT22;2800;49.528;8.666;2023-03-02T04:31:59;1.60;99.90
5554;DHT22;2800;49.528;8.666;2023-03-02T04:34:25;1.50;99.90
5554;DHT22;2800;49.528;8.666;2023-03-02T04:36:51;1.60;99.90
5554;DHT22;2800;49.528;8.666;2023-03-02T04:39:18;1.50;99.90
5554;DHT22;2800;49.528;8.666;2023-03-02T04:41:44;1.50;99.90
5554;DHT22;2800;49.528;8.666;2023-03-02T04:44:10;1.50;99.90
5554;DHT22;2800;49.528;8.666;2023-03-02T04:46:36;1.60;99.90
5554;DHT22;2800;49.528;8.666;2023-03-02T04:49:02;1.50;99.90
5554;DHT22;2800;49.528;8.666;2023-03-02T04:51:41;1.50;99.90
5554;DHT22;2800;49.528;8.666;2023-03-02T04:54:12;1.50;99.90
5554;DHT22;2800;49.528;8.666;2023-03-02T04:56:38;1.60;99.90
5554;DHT22;2800;49.528;8.666;2023-03-02T04:59:03;1.60;99.90
5554;DHT22;2800;49.528;8.666;2023-03-02T05:01:29;1.60;99.90
5554;DHT22;2800;49.528;8.666;2023-03-02T05:03:55;1.60;99.90
5554;DHT22;2800;49.528;8.666;2023-03-02T05:06:20;1.60;99.90
5554;DHT22;2800;49.528;8.666;2023-03-02T05:08:47;1.60;99.90
5554;DHT22;2800;49.528;8.666;2023-03-02T05:11:14;1.60;99.90
5554;DHT22;2800;49.528;8.666;2023-03-02T05:13:56;1.60;99.90
5554;DHT22;2800;49.528;8.666;2023-03-02T05:16:23;1.60;99.90
5554;DHT22;2800;49.528;8.666;2023-03-02T05:18:49;1.70;99.90
5554;DHT22;2800;49.528;8.666;2023-03-02T05:21:15;1.70;99.90
5554;DHT22;2800;49.528;8.666;2023-03-02T05:23:42;1.70;99.90
5554;DHT22;2800;49.528;8.666;2023-03-02T05:26:08;1.80;99.90
5554;DHT22;2800;49.528;8.666;2023-03-02T05:28:33;1.70;99.90
5554;DHT22;2800;49.528;8.666;2023-03-02T05:30:59;1.70;99.90
5554;DHT22;2800;49.528;8.666;2023-03-02T05:33:25;1.70;99.90
5554;DHT22;2800;49.528;8.666;2023-03-02T05:35:50;1.70;99.90
5554;DHT22;2800;49.528;8.666;2023-03-02T05:38:16;1.80;99.90
5554;DHT22;2800;49.528;8.666;2023-03-02T05:40:41;1.80;99.90
5554;DHT22;2800;49.528;8.666;2023-03-02T05:43:07;1.70;99.90
5554;DHT22;2800;49.528;8.666;2023-03-02T05:45:36;1.60;99.90
5554;DHT22;2800;49.528;8.666;2023-03-02T05:48:03;1.70;99.90
5554;DHT22;2800;49.528;8.666;2023-03-02T05:50:29;1.70;99.90
5554;DHT22;2800;49.528;8.666;2023-03-02T05:52:54;1.60;99.90
5554;DHT22;2800;49.528;8.666;2023-03-02T05:55:20;1.60;99.90
5554;DHT22;2800;49.528;8.666;2023-03-02T05:57:46;1.60;99.90
5554;DHT22;2800;49.528;8.666;2023-03-02T06:00:15;1.60;99.90
5554;DHT22;2800;49.528;8.666;2023-03-02T06:02:41;1.70;99.90
5554;DHT22;2800;49.528;8.666;2023-03-02T06:05:13;1.70;99.90
5554;DHT22;2800;49.528;8.666;2023-03-02T06:07:39;1.70;99.90
5554;DHT22;2800;49.528;8.666;2023-03-02T06:10:06;1.70;99.90
5554;DHT22;2800;49.528;8.666;2023-03-02T06:12:32;1.70;99.90
5554;DHT22;2800;49.528;8.666;2023-03-02T06:14:58;1.70;99.90
5554;DHT22;2800;49.528;8.666;2023-03-02T06:17:25;1.70;99.90
5554;DHT22;2800;49.528;8.666;2023-03-02T06:19:51;1.80;99.90
5554;DHT22;2800;49.528;8.666;2023-03-02T06:22:17;1.90;99.90
5554;DHT22;2800;49.528;8.666;2023-03-02T06:24:42;1.90;99.90
5554;DHT22;2800;49.528;8.666;2023-03-02T06:27:08;1.80;99.90
5554;DHT22;2800;49.528;8.666;2023-03-02T06:29:34;1.80;99.90
5554;DHT22;2800;49.528;8.666;2023-03-02T06:31:59;1.80;99.90
5554;DHT22;2800;49.528;8.666;2023-03-02T06:34:25;1.90;99.90
5554;DHT22;2800;49.528;8.666;2023-03-02T06:36:50;1.90;99.90
5554;DHT22;2800;49.528;8.666;2023-03-02T06:39:16;1.90;99.90
5554;DHT22;2800;49.528;8.666;2023-03-02T06:41:42;1.90;99.90
5554;DHT22;2800;49.528;8.666;2023-03-02T06:44:09;1.90;99.90
5554;DHT22;2800;49.528;8.666;2023-03-02T06:46:34;1.90;99.90
5554;DHT22;2800;49.528;8.666;2023-03-02T06:49:00;2.00;99.90
5554;DHT22;2800;49.528;8.666;2023-03-02T06:51:25;2.20;99.90
5554;DHT22;2800;49.528;8.666;2023-03-02T06:53:51;2.40;99.90
5554;DHT22;2800;49.528;8.666;2023-03-02T06:56:17;2.60;99.90
5554;DHT22;2800;49.528;8.666;2023-03-02T06:58:42;2.90;99.90
5554;DHT22;2800;49.528;8.666;2023-03-02T07:01:07;3.00;99.90
5554;DHT22;2800;49.528;8.666;2023-03-02T07:03:33;3.20;99.90
5554;DHT22;2800;49.528;8.666;2023-03-02T07:06:00;3.30;99.90
5554;DHT22;2800;49.528;8.666;2023-03-02T07:08:26;3.40;99.90
5554;DHT22;2800;49.528;8.666;2023-03-02T07:10:51;3.40;99.90
5554;DHT22;2800;49.528;8.666;2023-03-02T07:13:17;3.60;99.90
5554;DHT22;2800;49.528;8.666;2023-03-02T07:15:42;3.80;99.90
5554;DHT22;2800;49.528;8.666;2023-03-02T07:18:08;4.00;99.90
5554;DHT22;2800;49.528;8.666;2023-03-02T07:20:33;4.00;99.90
5554;DHT22;2800;49.528;8.666;2023-03-02T07:22:59;4.20;99.90
5554;DHT22;2800;49.528;8.666;2023-03-02T07:25:25;4.20;99.90
5554;DHT22;2800;49.528;8.666;2023-03-02T07:27:50;4.30;99.90
5554;DHT22;2800;49.528;8.666;2023-03-02T07:30:16;4.40;99.90
5554;DHT22;2800;49.528;8.666;2023-03-02T07:32:45;4.50;99.90
5554;DHT22;2800;49.528;8.666;2023-03-02T07:35:11;4.70;99.90
5554;DHT22;2800;49.528;8.666;2023-03-02T07:37:37;4.90;99.90
5554;DHT22;2800;49.528;8.666;2023-03-02T07:40:04;5.00;99.90
5554;DHT22;2800;49.528;8.666;2023-03-02T07:42:31;4.90;99.90
5554;DHT22;2800;49.528;8.666;2023-03-02T07:44:56;5.10;99.90
5554;DHT22;2800;49.528;8.666;2023-03-02T07:47:22;5.50;99.90
5554;DHT22;2800;49.528;8.666;2023-03-02T07:49:47;5.60;99.30
5554;DHT22;2800;49.528;8.666;2023-03-02T07:52:13;5.80;98.90
5554;DHT22;2800;49.528;8.666;2023-03-02T07:54:39;5.60;98.60
5554;DHT22;2800;49.528;8.666;2023-03-02T07:57:04;5.90;98.20
5554;DHT22;2800;49.528;8.666;2023-03-02T07:59:30;6.10;97.70
5554;DHT22;2800;49.528;8.666;2023-03-02T08:01:56;6.10;97.10
5554;DHT22;2800;49.528;8.666;2023-03-02T08:04:22;6.30;97.10
5554;DHT22;2800;49.528;8.666;2023-03-02T08:06:48;6.30;96.70
5554;DHT22;2800;49.528;8.666;2023-03-02T08:09:14;6.70;96.50
5554;DHT22;2800;49.528;8.666;2023-03-02T08:11:39;7.00;95.30
5554;DHT22;2800;49.528;8.666;2023-03-02T08:14:06;7.10;94.70
5554;DHT22;2800;49.528;8.666;2023-03-02T08:16:31;7.00;94.10
5554;DHT22;2800;49.528;8.666;2023-03-02T08:18:57;7.20;94.00
5554;DHT22;2800;49.528;8.666;2023-03-02T08:21:24;7.50;93.30
5554;DHT22;2800;49.528;8.666;2023-03-02T08:23:50;7.70;92.60
5554;DHT22;2800;49.528;8.666;2023-03-02T08:26:17;7.70;92.10
5554;DHT22;2800;49.528;8.666;2023-03-02T08:28:43;7.50;91.50
5554;DHT22;2800;49.528;8.666;2023-03-02T08:31:08;7.70;91.20
5554;DHT22;2800;49.528;8.666;2023-03-02T08:33:34;7.70;90.80
5554;DHT22;2800;49.528;8.666;2023-03-02T08:36:03;7.60;90.90
5554;DHT22;2800;49.528;8.666;2023-03-02T08:38:30;7.50;90.50
5554;DHT22;2800;49.528;8.666;2023-03-02T08:40:56;8.00;90.60
5554;DHT22;2800;49.528;8.666;2023-03-02T08:43:23;8.30;89.80
5554;DHT22;2800;49.528;8.666;2023-03-02T08:45:51;8.30;88.50
5554;DHT22;2800;49.528;8.666;2023-03-02T08:48:18;8.10;88.00
5554;DHT22;2800;49.528;8.666;2023-03-02T08:50:43;8.40;87.90
5554;DHT22;2800;49.528;8.666;2023-03-02T08:53:09;8.70;87.50
5554;DHT22;2800;49.528;8.666;2023-03-02T08:55:35;8.80;86.40
5554;DHT22;2800;49.528;8.666;2023-03-02T08:58:01;9.10;84.60
5554;DHT22;2800;49.528;8.666;2023-03-02T09:00:27;9.20;83.90
5554;DHT22;2800;49.528;8.666;2023-03-02T09:02:52;8.90;81.60
5554;DHT22;2800;49.528;8.666;2023-03-02T09:05:18;9.00;82.50
5554;DHT22;2800;49.528;8.666;2023-03-02T09:07:43;9.10;83.20
5554;DHT22;2800;49.528;8.666;2023-03-02T09:10:09;9.50;80.60
5554;DHT22;2800;49.528;8.666;2023-03-02T09:12:35;10.10;78.10
5554;DHT22;2800;49.528;8.666;2023-03-02T09:15:00;9.80;77.20
5554;DHT22;2800;49.528;8.666;2023-03-02T09:17:26;10.20;76.10
5554;DHT22;2800;49.528;8.666;2023-03-02T09:19:51;10.30;75.40
5554;DHT22;2800;49.528;8.666;2023-03-02T09:22:17;10.30;72.80
5554;DHT22;2800;49.528;8.666;2023-03-02T09:24:42;10.00;73.60
5554;DHT22;2800;49.528;8.666;2023-03-02T09:27:08;10.00;72.40
5554;DHT22;2800;49.528;8.666;2023-03-02T09:29:34;10.50;73.30
5554;DHT22;2800;49.528;8.666;2023-03-02T09:31:59;10.40;72.50
5554;DHT22;2800;49.528;8.666;2023-03-02T09:34:25;10.00;70.80
5554;DHT22;2800;49.528;8.666;2023-03-02T09:36:50;10.30;71.30
5554;DHT22;2800;49.528;8.666;2023-03-02T09:39:16;10.50;70.70
5554;DHT22;2800;49.528;8.666;2023-03-02T09:47:27;10.90;68.80
5554;DHT22;2800;49.528;8.666;2023-03-02T09:55:53;11.50;67.70
5554;DHT22;2800;49.528;8.666;2023-03-02T09:58:19;11.90;67.60
5554;DHT22;2800;49.528;8.666;2023-03-02T10:00:46;12.20;66.70
5554;DHT22;2800;49.528;8.666;2023-03-02T10:03:18;12.40;65.80
5554;DHT22;2800;49.528;8.666;2023-03-02T10:05:52;11.90;63.70
5554;DHT22;2800;49.528;8.666;2023-03-02T10:08:26;11.50;63.50
5554;DHT22;2800;49.528;8.666;2023-03-02T10:16:23;11.20;62.60
5554;DHT22;2800;49.528;8.666;2023-03-02T10:19:00;11.30;63.30
5554;DHT22;2800;49.528;8.666;2023-03-02T10:21:34;11.60;62.90
5554;DHT22;2800;49.528;8.666;2023-03-02T10:26:53;11.80;62.70
5554;DHT22;2800;49.528;8.666;2023-03-02T10:29:25;11.60;62.30
5554;DHT22;2800;49.528;8.666;2023-03-02T10:31:59;11.70;62.20
5554;DHT22;2800;49.528;8.666;2023-03-02T10:34:28;12.10;62.60
5554;DHT22;2800;49.528;8.666;2023-03-02T10:36:53;11.80;61.20
5554;DHT22;2800;49.528;8.666;2023-03-02T10:39:19;12.00;62.20
5554;DHT22;2800;49.528;8.666;2023-03-02T10:42:03;12.20;62.10
5554;DHT22;2800;49.528;8.666;2023-03-02T10:44:35;12.10;61.20
5554;DHT22;2800;49.528;8.666;2023-03-02T10:47:03;12.40;61.70
5554;DHT22;2800;49.528;8.666;2023-03-02T10:49:35;12.80;62.10
5554;DHT22;2800;49.528;8.666;2023-03-02T10:52:11;12.80;61.40
5554;DHT22;2800;49.528;8.666;2023-03-02T10:54:37;12.60;60.70
5554;DHT22;2800;49.528;8.666;2023-03-02T10:57:19;12.80;60.90
5554;DHT22;2800;49.528;8.666;2023-03-02T10:59:51;12.90;60.60
5554;DHT22;2800;49.528;8.666;2023-03-02T11:02:24;12.80;59.90
5554;DHT22;2800;49.528;8.666;2023-03-02T11:05:18;12.70;59.60
5554;DHT22;2800;49.528;8.666;2023-03-02T11:08:04;12.60;59.50
5554;DHT22;2800;49.528;8.666;2023-03-02T11:10:31;13.00;59.40
5554;DHT22;2800;49.528;8.666;2023-03-02T11:12:59;12.90;59.00
5554;DHT22;2800;49.528;8.666;2023-03-02T11:18:00;13.20;59.10
5554;DHT22;2800;49.528;8.666;2023-03-02T11:20:37;13.60;59.40
5554;DHT22;2800;49.528;8.666;2023-03-02T11:23:20;14.00;59.10
5554;DHT22;2800;49.528;8.666;2023-03-02T11:29:04;14.00;58.30
5554;DHT22;2800;49.528;8.666;2023-03-02T11:31:50;14.40;58.40
5554;DHT22;2800;49.528;8.666;2023-03-02T11:37:14;14.70;57.90
5554;DHT22;2800;49.528;8.666;2023-03-02T11:42:37;14.90;56.90
5554;DHT22;2800;49.528;8.666;2023-03-02T11:45:14;14.90;57.40
5554;DHT22;2800;49.528;8.666;2023-03-02T11:47:57;14.90;56.40
5554;DHT22;2800;49.528;8.666;2023-03-02T11:50:25;15.10;55.60
5554;DHT22;2800;49.528;8.666;2023-03-02T11:52:54;15.40;55.70
5554;DHT22;2800;49.528;8.666;2023-03-02T11:55:23;15.50;55.20
5554;DHT22;2800;49.528;8.666;2023-03-02T11:57:53;15.40;55.40
5554;DHT22;2800;49.528;8.666;2023-03-02T12:05:57;15.70;54.80
5554;DHT22;2800;49.528;8.666;2023-03-02T12:13:44;16.60;55.00
5554;DHT22;2800;49.528;8.666;2023-03-02T12:16:41;16.80;54.00
5554;DHT22;2800;49.528;8.666;2023-03-02T12:24:35;17.80;53.30
5554;DHT22;2800;49.528;8.666;2023-03-02T12:29:47;16.50;52.70
5554;DHT22;2800;49.528;8.666;2023-03-02T12:32:30;16.60;51.90
5554;DHT22;2800;49.528;8.666;2023-03-02T12:35:10;16.80;52.80
5554;DHT22;2800;49.528;8.666;2023-03-02T12:37:48;16.80;52.20
5554;DHT22;2800;49.528;8.666;2023-03-02T12:49:02;17.70;51.90
5554;DHT22;2800;49.528;8.666;2023-03-02T12:51:42;16.90;50.60
5554;DHT22;2800;49.528;8.666;2023-03-02T12:54:22;16.70;50.00
5554;DHT22;2800;49.528;8.666;2023-03-02T12:56:48;17.20;50.90
5554;DHT22;2800;49.528;8.666;2023-03-02T12:59:23;17.70;51.60
5554;DHT22;2800;49.528;8.666;2023-03-02T13:01:49;18.40;52.50
5554;DHT22;2800;49.528;8.666;2023-03-02T13:04:25;18.50;51.90
5554;DHT22;2800;49.528;8.666;2023-03-02T13:06:52;18.50;51.10
5554;DHT22;2800;49.528;8.666;2023-03-02T13:09:18;17.90;50.90
5554;DHT22;2800;49.528;8.666;2023-03-02T13:11:45;17.70;50.70
5554;DHT22;2800;49.528;8.666;2023-03-02T13:14:25;17.60;50.30
5554;DHT22;2800;49.528;8.666;2023-03-02T13:16:57;17.70;50.30
5554;DHT22;2800;49.528;8.666;2023-03-02T13:19:24;17.30;50.80
5554;DHT22;2800;49.528;8.666;2023-03-02T13:21:50;17.20;49.80
5554;DHT22;2800;49.528;8.666;2023-03-02T13:27:19;17.50;49.20
5554;DHT22;2800;49.528;8.666;2023-03-02T13:29:46;18.00;50.00
5554;DHT22;2800;49.528;8.666;2023-03-02T13:32:17;17.90;49.80
5554;DHT22;2800;49.528;8.666;2023-03-02T13:34:55;17.90;50.20
5554;DHT22;2800;49.528;8.666;2023-03-02T13:37:34;18.30;50.00
5554;DHT22;2800;49.528;8.666;2023-03-02T13:40:05;17.70;49.30
5554;DHT22;2800;49.528;8.666;2023-03-02T13:42:36;17.40;49.40
5554;DHT22;2800;49.528;8.666;2023-03-02T13:45:25;17.70;49.80
5554;DHT22;2800;49.528;8.666;2023-03-02T13:47:52;17.60;50.00
5554;DHT22;2800;49.528;8.666;2023-03-02T13:50:29;17.70;49.70
5554;DHT22;2800;49.528;8.666;2023-03-02T13:53:00;18.90;51.00
5554;DHT22;2800;49.528;8.666;2023-03-02T13:55:29;19.00;50.50
5554;DHT22;2800;49.528;8.666;2023-03-02T13:57:55;18.80;50.60
5554;DHT22;2800;49.528;8.666;2023-03-02T14:00:29;18.40;50.00
5554;DHT22;2800;49.528;8.666;2023-03-02T14:02:56;18.80;50.00
5554;DHT22;2800;49.528;8.666;2023-03-02T14:05:24;18.80;50.40
5554;DHT22;2800;49.528;8.666;2023-03-02T14:07:51;19.50;50.60
5554;DHT22;2800;49.528;8.666;2023-03-02T14:10:18;19.90;51.30
5554;DHT22;2800;49.528;8.666;2023-03-02T14:13:08;20.60;51.40
5554;DHT22;2800;49.528;8.666;2023-03-02T14:15:39;21.40;53.60
5554;DHT22;2800;49.528;8.666;2023-03-02T14:20:48;20.30;50.90
5554;DHT22;2800;49.528;8.666;2023-03-02T14:23:13;20.20;51.40
5554;DHT22;2800;49.528;8.666;2023-03-02T14:25:39;20.40;51.10
5554;DHT22;2800;49.528;8.666;2023-03-02T14:28:04;19.90;50.30
5554;DHT22;2800;49.528;8.666;2023-03-02T14:30:30;20.10;50.80
5554;DHT22;2800;49.528;8.666;2023-03-02T14:32:55;20.30;50.70
5554;DHT22;2800;49.528;8.666;2023-03-02T14:35:24;20.10;50.30
5554;DHT22;2800;49.528;8.666;2023-03-02T14:37:49;19.90;50.40
5554;DHT22;2800;49.528;8.666;2023-03-02T14:40:26;19.30;49.50
5554;DHT22;2800;49.528;8.666;2023-03-02T14:42:52;19.20;49.90
5554;DHT22;2800;49.528;8.666;2023-03-02T14:45:19;19.00;49.20
5554;DHT22;2800;49.528;8.666;2023-03-02T14:47:45;18.60;48.70
5554;DHT22;2800;49.528;8.666;2023-03-02T14:50:11;18.20;48.10
5554;DHT22;2800;49.528;8.666;2023-03-02T14:52:43;18.60;49.50
5554;DHT22;2800;49.528;8.666;2023-03-02T14:55:36;18.70;49.20
5554;DHT22;2800;49.528;8.666;2023-03-02T14:58:12;19.30;50.20
5554;DHT22;2800;49.528;8.666;2023-03-02T15:00:38;19.10;49.30
5554;DHT22;2800;49.528;8.666;2023-03-02T15:03:04;19.20;50.30
5554;DHT22;2800;49.528;8.666;2023-03-02T15:05:30;18.70;48.80
5554;DHT22;2800;49.528;8.666;2023-03-02T15:07:56;19.10;49.60
5554;DHT22;2800;49.528;8.666;2023-03-02T15:10:22;19.10;49.40
5554;DHT22;2800;49.528;8.666;2023-03-02T15:12:48;18.70;48.80
5554;DHT22;2800;49.528;8.666;2023-03-02T15:15:13;18.30;48.10
5554;DHT22;2800;49.528;8.666;2023-03-02T15:17:40;18.90;48.80
5554;DHT22;2800;49.528;8.666;2023-03-02T15:20:06;19.30;50.50
5554;DHT22;2800;49.528;8.666;2023-03-02T15:22:33;19.70;50.90
5554;DHT22;2800;49.528;8.666;2023-03-02T15:24:58;19.90;50.60
5554;DHT22;2800;49.528;8.666;2023-03-02T15:27:24;19.90;50.90
5554;DHT22;2800;49.528;8.666;2023-03-02T15:29:50;19.40;49.90
5554;DHT22;2800;49.528;8.666;2023-03-02T15:32:15;19.00;49.20
5554;DHT22;2800;49.528;8.666;2023-03-02T15:34:41;18.30;49.00
5554;DHT22;2800;49.528;8.666;2023-03-02T15:37:08;18.20;49.20
5554;DHT22;2800;49.528;8.666;2023-03-02T15:39:34;18.20;48.60
5554;DHT22;2800;49.528;8.666;2023-03-02T15:41:59;18.40;49.10
5554;DHT22;2800;49.528;8.666;2023-03-02T15:44:25;18.70;49.70
5554;DHT22;2800;49.528;8.666;2023-03-02T15:46:55;18.40;49.30
5554;DHT22;2800;49.528;8.666;2023-03-02T15:49:22;18.60;49.10
5554;DHT22;2800;49.528;8.666;2023-03-02T15:51:53;18.70;49.30
5554;DHT22;2800;49.528;8.666;2023-03-02T15:54:19;18.60;48.80
5554;DHT22;2800;49.528;8.666;2023-03-02T15:56:46;18.60;48.60
5554;DHT22;2800;49.528;8.666;2023-03-02T15:59:23;18.30;48.70
5554;DHT22;2800;49.528;8.666;2023-03-02T16:01:49;18.00;48.50
5554;DHT22;2800;49.528;8.666;2023-03-02T16:04:14;17.80;48.80
5554;DHT22;2800;49.528;8.666;2023-03-02T16:06:40;18.10;49.30
5554;DHT22;2800;49.528;8.666;2023-03-02T16:09:06;17.80;48.50
5554;DHT22;2800;49.528;8.666;2023-03-02T16:11:31;17.10;46.70
5554;DHT22;2800;49.528;8.666;2023-03-02T16:13:57;16.90;46.80
5554;DHT22;2800;49.528;8.666;2023-03-02T16:16:22;17.00;47.00
5554;DHT22;2800;49.528;8.666;2023-03-02T16:18:55;16.70;45.90
5554;DHT22;2800;49.528;8.666;2023-03-02T16:21:22;15.90;45.00
5554;DHT22;2800;49.528;8.666;2023-03-02T16:23:48;15.20;45.10
5554;DHT22;2800;49.528;8.666;2023-03-02T16:26:16;15.20;45.30
5554;DHT22;2800;49.528;8.666;2023-03-02T16:28:43;14.90;44.10
5554;DHT22;2800;49.528;8.666;2023-03-02T16:31:12;14.70;44.00
5554;DHT22;2800;49.528;8.666;2023-03-02T16:33:39;14.60;44.10
5554;DHT22;2800;49.528;8.666;2023-03-02T16:36:05;14.40;43.40
5554;DHT22;2800;49.528;8.666;2023-03-02T16:38:31;14.10;43.80
5554;DHT22;2800;49.528;8.666;2023-03-02T16:40:57;14.00;44.10
5554;DHT22;2800;49.528;8.666;2023-03-02T16:43:23;13.90;44.00
5554;DHT22;2800;49.528;8.666;2023-03-02T16:45:49;13.80;44.30
5554;DHT22;2800;49.528;8.666;2023-03-02T16:48:15;13.60;44.60
5554;DHT22;2800;49.528;8.666;2023-03-02T16:50:41;13.40;44.40
5554;DHT22;2800;49.528;8.666;2023-03-02T16:53:06;13.20;43.80
5554;DHT22;2800;49.528;8.666;2023-03-02T16:55:32;13.10;44.40
5554;DHT22;2800;49.528;8.666;2023-03-02T16:57:57;12.90;44.00
5554;DHT22;2800;49.528;8.666;2023-03-02T17:00:23;12.50;45.70
5554;DHT22;2800;49.528;8.666;2023-03-02T17:02:50;12.10;45.40
5554;DHT22;2800;49.528;8.666;2023-03-02T17:05:17;11.70;45.30
5554;DHT22;2800;49.528;8.666;2023-03-02T17:07:43;11.30;45.30
5554;DHT22;2800;49.528;8.666;2023-03-02T17:10:14;11.10;45.80
5554;DHT22;2800;49.528;8.666;2023-03-02T17:12:40;10.90;47.50
5554;DHT22;2800;49.528;8.666;2023-03-02T17:15:06;10.70;47.40
5554;DHT22;2800;49.528;8.666;2023-03-02T17:17:31;10.40;47.50
5554;DHT22;2800;49.528;8.666;2023-03-02T17:19:57;10.00;47.60
5554;DHT22;2800;49.528;8.666;2023-03-02T17:22:23;9.80;49.50
5554;DHT22;2800;49.528;8.666;2023-03-02T17:24:49;9.60;50.00
5554;DHT22;2800;49.528;8.666;2023-03-02T17:27:14;9.50;50.80
5554;DHT22;2800;49.528;8.666;2023-03-02T17:29:40;9.40;51.90
5554;DHT22;2800;49.528;8.666;2023-03-02T17:32:05;9.30;52.50
5554;DHT22;2800;49.528;8.666;2023-03-02T17:34:31;9.30;53.70
5554;DHT22;2800;49.528;8.666;2023-03-02T17:36:57;9.40;51.80
5554;DHT22;2800;49.528;8.666;2023-03-02T17:39:25;9.40;52.30